createdAt,value
2022-11-19T00:02:00.831Z,98.80
2022-11-19T00:04:30.226Z,99.40
2022-11-19T00:06:58.424Z,99.90
2022-11-19T00:09:26.557Z,98.20
2022-11-19T00:12:11.927Z,98.40
2022-11-19T00:14:40.014Z,98.20
2022-11-19T00:17:07.999Z,98.20
2022-11-19T00:19:37.375Z,97.60
2022-11-19T00:22:05.386Z,97.30
2022-11-19T00:24:33.390Z,96.90
2022-11-19T00:27:01.385Z,98.30
2022-11-19T00:29:29.371Z,98.00
2022-11-19T00:31:57.398Z,98.60
2022-11-19T00:34:25.408Z,98.30
2022-11-19T00:36:54.739Z,99.10
2022-11-19T00:39:23.020Z,99.00
2022-11-19T00:41:51.139Z,99.00
2022-11-19T00:44:19.169Z,99.10
2022-11-19T00:46:47.231Z,99.90
2022-11-19T00:49:15.242Z,99.30
2022-11-19T00:51:43.487Z,98.80
2022-11-19T00:54:13.001Z,98.40
2022-11-19T00:56:40.814Z,97.10
2022-11-19T00:59:08.985Z,96.60
2022-11-19T01:01:37.098Z,96.00
2022-11-19T01:04:06.143Z,95.50
2022-11-19T01:06:34.643Z,94.00
2022-11-19T01:09:02.679Z,93.50
2022-11-19T01:11:34.383Z,94.10
2022-11-19T01:14:03.465Z,94.30
2022-11-19T01:16:33.829Z,93.90
2022-11-19T01:19:02.570Z,92.90
2022-11-19T01:21:33.120Z,94.90
2022-11-19T01:24:01.836Z,94.60
2022-11-19T01:26:31.520Z,95.60
2022-11-19T01:28:59.579Z,96.90
2022-11-19T01:31:29.495Z,97.90
2022-11-19T01:33:58.000Z,97.00
2022-11-19T01:36:27.712Z,95.80
2022-11-19T01:38:56.084Z,95.70
2022-11-19T01:41:25.972Z,95.80
2022-11-19T01:43:59.020Z,94.50
2022-11-19T01:46:29.166Z,95.30
2022-11-19T01:49:01.570Z,97.00
2022-11-19T01:51:32.847Z,98.00
2022-11-19T01:54:06.294Z,98.10
2022-11-19T01:56:34.431Z,97.20
2022-11-19T01:59:08.738Z,97.30
2022-11-19T02:01:36.905Z,96.70
2022-11-19T02:04:06.098Z,97.00
2022-11-19T02:06:35.443Z,95.80
2022-11-19T02:09:03.612Z,95.50
2022-11-19T02:11:45.481Z,95.60
2022-11-19T02:14:29.314Z,95.60
2022-11-19T02:17:07.289Z,94.20
2022-11-19T02:19:55.223Z,94.70
2022-11-19T02:22:42.493Z,95.20
2022-11-19T02:25:19.171Z,94.80
2022-11-19T02:28:02.249Z,92.90
2022-11-19T02:30:36.705Z,91.50
2022-11-19T02:33:08.906Z,90.70
2022-11-19T02:35:46.099Z,93.60
2022-11-19T02:38:22.629Z,95.20
2022-11-19T02:40:57.088Z,92.80
2022-11-19T02:43:31.247Z,93.00
2022-11-19T02:46:06.120Z,90.00
2022-11-19T02:48:38.258Z,89.50
2022-11-19T02:51:07.825Z,91.00
2022-11-19T02:53:35.792Z,91.20
2022-11-19T02:56:13.893Z,91.80
2022-11-19T02:59:03.432Z,92.40
2022-11-19T03:01:52.464Z,93.20
2022-11-19T03:04:32.635Z,93.80
2022-11-19T03:07:05.499Z,93.60
2022-11-19T03:09:36.742Z,94.70
2022-11-19T03:12:11.976Z,94.40
2022-11-19T03:15:06.843Z,95.10
2022-11-19T03:17:51.532Z,93.90
2022-11-19T03:20:24.980Z,93.40
2022-11-19T03:22:58.212Z,95.00
2022-11-19T03:25:29.871Z,94.90
2022-11-19T03:28:02.306Z,93.00
2022-11-19T03:30:31.768Z,94.70
2022-11-19T03:33:04.925Z,94.70
2022-11-19T03:35:37.524Z,93.30
2022-11-19T03:38:08.569Z,90.70
2022-11-19T03:40:37.720Z,92.10
2022-11-19T03:43:10.503Z,93.60
2022-11-19T03:45:43.036Z,94.70
2022-11-19T03:48:13.614Z,92.20
2022-11-19T03:50:48.496Z,93.30
2022-11-19T03:53:16.731Z,92.80
2022-11-19T03:55:48.904Z,94.20
2022-11-19T03:58:16.953Z,94.70
2022-11-19T04:00:44.940Z,94.60
2022-11-19T04:03:14.310Z,96.30
2022-11-19T04:05:42.386Z,96.30
2022-11-19T04:08:10.534Z,96.20
2022-11-19T04:10:38.691Z,96.50
2022-11-19T04:13:06.676Z,95.70
2022-11-19T04:15:34.698Z,95.60
2022-11-19T04:18:02.775Z,94.10
2022-11-19T04:20:32.224Z,94.80
2022-11-19T04:23:00.226Z,94.70
2022-11-19T04:25:28.202Z,96.20
2022-11-19T04:27:56.346Z,96.30
2022-11-19T04:30:24.346Z,95.30
2022-11-19T04:32:52.343Z,96.20
2022-11-19T04:35:21.862Z,97.20
2022-11-19T04:37:51.015Z,94.70
2022-11-19T04:40:19.103Z,94.90
2022-11-19T04:42:47.107Z,95.50
2022-11-19T04:45:15.214Z,95.30
2022-11-19T04:47:43.192Z,95.80
2022-11-19T04:50:11.422Z,97.00
2022-11-19T04:52:41.139Z,97.30
2022-11-19T04:55:11.852Z,96.60
2022-11-19T04:57:40.157Z,95.70
2022-11-19T05:00:09.422Z,96.40
2022-11-19T05:02:37.436Z,96.40
2022-11-19T05:05:05.876Z,96.20
2022-11-19T05:07:33.896Z,97.40
2022-11-19T05:10:01.976Z,98.00
2022-11-19T05:12:31.366Z,98.00
2022-11-19T05:14:59.325Z,97.30
2022-11-19T05:17:27.308Z,96.50
2022-11-19T05:19:55.343Z,95.90
2022-11-19T05:22:23.331Z,96.10
2022-11-19T05:24:51.422Z,96.60
2022-11-19T05:27:19.515Z,97.20
2022-11-19T05:29:48.880Z,96.40
2022-11-19T05:32:16.947Z,96.60
2022-11-19T05:34:44.898Z,96.60
2022-11-19T05:37:12.904Z,96.90
2022-11-19T05:39:40.923Z,97.50
2022-11-19T05:42:09.042Z,97.30
2022-11-19T05:44:37.076Z,98.00
2022-11-19T05:47:06.492Z,96.40
2022-11-19T05:49:34.506Z,95.90
2022-11-19T05:52:02.491Z,96.80
2022-11-19T05:54:30.525Z,96.00
2022-11-19T05:56:58.581Z,95.60
2022-11-19T05:59:26.667Z,96.20
2022-11-19T06:01:54.654Z,95.70
2022-11-19T06:04:24.054Z,96.40
2022-11-19T06:06:52.561Z,96.20
2022-11-19T06:09:20.876Z,97.10
2022-11-19T06:11:50.147Z,97.20
2022-11-19T06:14:20.340Z,96.30
2022-11-19T06:16:48.546Z,95.20
2022-11-19T06:19:16.756Z,93.00
2022-11-19T06:21:46.632Z,94.00
2022-11-19T06:24:14.885Z,94.80
2022-11-19T06:26:43.600Z,94.70
2022-11-19T06:29:13.750Z,94.30
2022-11-19T06:31:41.880Z,93.40
2022-11-19T06:34:10.501Z,93.80
2022-11-19T06:36:42.004Z,93.80
2022-11-19T06:39:13.200Z,94.20
2022-11-19T06:41:41.218Z,94.90
2022-11-19T06:44:09.353Z,94.10
2022-11-19T06:46:38.333Z,93.10
2022-11-19T06:49:07.121Z,93.70
2022-11-19T06:51:35.175Z,94.80
2022-11-19T06:54:03.178Z,94.70
2022-11-19T06:56:32.522Z,92.20
2022-11-19T06:59:00.491Z,90.90
2022-11-19T07:01:28.522Z,88.10
2022-11-19T07:03:56.499Z,82.70
2022-11-19T07:06:24.479Z,79.20
2022-11-19T07:08:52.511Z,76.90
2022-11-19T07:11:29.190Z,68.50
2022-11-19T07:13:59.785Z,60.60
2022-11-19T07:16:30.606Z,58.80
2022-11-19T07:18:59.801Z,66.00
2022-11-19T07:21:28.684Z,66.10
2022-11-19T07:23:57.126Z,60.70
2022-11-19T07:26:25.211Z,63.80
2022-11-19T07:28:53.347Z,68.20
2022-11-19T07:31:24.546Z,59.50
2022-11-19T07:33:52.561Z,58.20
2022-11-19T07:36:20.656Z,61.10
2022-11-19T07:38:50.527Z,56.90
2022-11-19T07:41:36.025Z,55.10
2022-11-19T07:44:04.068Z,58.40
2022-11-19T07:46:33.466Z,48.60
2022-11-19T07:49:01.759Z,31.80
2022-11-19T07:51:29.751Z,28.20
2022-11-19T07:53:57.811Z,36.60
2022-11-19T07:56:25.824Z,29.70
2022-11-19T07:58:53.863Z,32.10
2022-11-19T08:01:26.794Z,26.30
2022-11-19T08:03:57.004Z,27.50
2022-11-19T08:06:27.328Z,25.50
2022-11-19T08:08:56.079Z,38.20
2022-11-19T08:11:24.844Z,17.80
2022-11-19T08:13:53.226Z,22.20
2022-11-19T08:16:35.782Z,15.20
2022-11-19T08:19:07.780Z,12.80
2022-11-19T08:21:35.883Z,13.60
2022-11-19T08:24:04.320Z,22.90
2022-11-19T08:26:32.317Z,14.90
2022-11-19T08:29:00.364Z,15.30
2022-11-19T08:31:28.399Z,22.80
2022-11-19T08:33:56.433Z,21.20
2022-11-19T08:36:25.847Z,11.70
2022-11-19T08:38:53.890Z,9.80
2022-11-19T08:41:39.641Z,3.60
2022-11-19T08:44:07.655Z,1.00
2022-11-19T08:46:35.663Z,2.10
2022-11-19T08:49:03.702Z,1.00
2022-11-19T08:51:33.097Z,1.00
2022-11-19T08:54:01.201Z,1.00
2022-11-19T08:56:29.270Z,1.00
2022-11-19T08:59:02.256Z,1.00
2022-11-19T09:01:31.010Z,1.00
2022-11-19T09:03:59.181Z,1.00
2022-11-19T09:06:27.386Z,1.00
2022-11-19T09:08:58.315Z,1.00
2022-11-19T09:11:26.731Z,1.00
2022-11-19T09:13:54.784Z,1.00
2022-11-19T09:16:22.820Z,1.00
2022-11-19T09:18:51.098Z,1.00
2022-11-19T09:21:19.187Z,1.00
2022-11-19T09:23:47.194Z,1.00
2022-11-19T09:26:19.013Z,1.00
2022-11-19T09:28:48.017Z,1.00
2022-11-19T09:31:18.178Z,1.00
2022-11-19T09:33:49.643Z,1.00
2022-11-19T09:36:19.415Z,1.00
2022-11-19T09:38:48.276Z,1.00
2022-11-19T09:41:51.034Z,1.00
2022-11-19T09:44:47.831Z,1.00
2022-11-19T09:47:27.059Z,1.00
2022-11-19T09:50:06.258Z,1.00
2022-11-19T09:52:38.545Z,1.00
2022-11-19T09:55:07.567Z,1.00
2022-11-19T09:57:44.279Z,1.00
2022-11-19T10:00:18.927Z,1.00
2022-11-19T10:02:46.993Z,1.00
2022-11-19T10:05:16.754Z,1.00
2022-11-19T10:08:00.304Z,1.00
2022-11-19T10:10:37.033Z,1.00
2022-11-19T10:13:33.171Z,1.00
2022-11-19T10:16:13.190Z,1.00
2022-11-19T10:18:52.607Z,1.00
2022-11-19T10:21:29.154Z,1.00
2022-11-19T10:24:07.155Z,1.00
2022-11-19T10:26:37.165Z,1.00
2022-11-19T10:29:16.282Z,1.00
2022-11-19T10:31:47.290Z,1.00
2022-11-19T10:34:20.257Z,1.00
2022-11-19T10:36:51.496Z,1.00
2022-11-19T10:39:24.746Z,1.00
2022-11-19T10:41:57.266Z,1.00
2022-11-19T10:44:40.379Z,1.00
2022-11-19T10:47:15.368Z,1.00
2022-11-19T10:49:44.473Z,1.00
2022-11-19T10:52:22.463Z,1.00
2022-11-19T10:54:53.434Z,1.00
2022-11-19T10:57:23.088Z,1.00
2022-11-19T10:59:53.376Z,1.00
2022-11-19T11:02:28.348Z,1.00
2022-11-19T11:05:10.294Z,1.00
2022-11-19T11:07:50.885Z,1.00
2022-11-19T11:10:31.918Z,1.00
2022-11-19T11:13:25.882Z,1.00
2022-11-19T11:15:55.563Z,1.00
2022-11-19T11:18:28.429Z,1.00
2022-11-19T11:20:57.535Z,1.00
2022-11-19T11:23:27.711Z,1.00
2022-11-19T11:26:03.163Z,1.00
2022-11-19T11:28:31.225Z,1.00
2022-11-19T11:31:02.875Z,1.00
2022-11-19T11:33:34.950Z,1.00
2022-11-19T11:36:07.095Z,1.00
2022-11-19T11:38:42.356Z,1.00
2022-11-19T11:42:01.897Z,1.00
2022-11-19T11:44:03.069Z,1.00
2022-11-19T11:46:42.987Z,1.00
2022-11-19T11:49:25.910Z,1.00
2022-11-19T11:52:14.393Z,1.00
2022-11-19T11:54:57.037Z,1.00
2022-11-19T11:57:27.326Z,1.00
2022-11-19T11:59:55.886Z,1.00
2022-11-19T12:02:30.397Z,1.00
2022-11-19T12:05:01.998Z,1.00
2022-11-19T12:08:03.572Z,1.00
2022-11-19T12:10:40.821Z,1.00
2022-11-19T12:13:44.649Z,1.00
2022-11-19T12:16:19.908Z,1.00
2022-11-19T12:19:01.288Z,1.00
2022-11-19T12:21:37.862Z,1.00
2022-11-19T12:24:30.397Z,1.00
2022-11-19T12:27:09.780Z,1.00
2022-11-19T12:29:47.541Z,1.00
2022-11-19T12:32:27.915Z,1.00
2022-11-19T12:35:19.079Z,1.00
2022-11-19T12:38:01.916Z,1.00
2022-11-19T12:40:41.478Z,1.00
2022-11-19T12:43:21.313Z,1.00
2022-11-19T12:46:02.353Z,1.00
2022-11-19T12:48:51.088Z,1.00
2022-11-19T12:51:36.397Z,1.00
2022-11-19T12:54:34.678Z,1.00
2022-11-19T12:57:21.148Z,1.00
2022-11-19T13:00:06.416Z,1.00
2022-11-19T13:02:46.432Z,1.00
2022-11-19T13:05:19.562Z,1.00
2022-11-19T13:07:53.834Z,1.00
2022-11-19T13:10:25.775Z,1.00
2022-11-19T13:12:57.959Z,1.00
2022-11-19T13:15:31.194Z,1.00
2022-11-19T13:18:03.316Z,1.00
2022-11-19T13:20:41.451Z,1.00
2022-11-19T13:23:18.621Z,1.00
2022-11-19T13:25:52.779Z,1.00
2022-11-19T13:28:25.906Z,1.00
2022-11-19T13:30:56.195Z,1.00
2022-11-19T13:33:29.141Z,1.00
2022-11-19T13:36:03.437Z,1.00
2022-11-19T13:38:43.755Z,1.00
2022-11-19T13:41:15.466Z,1.00
2022-11-19T13:44:02.120Z,1.00
2022-11-19T13:46:35.686Z,1.00
2022-11-19T13:49:07.629Z,1.00
2022-11-19T13:51:40.313Z,1.00
2022-11-19T13:54:10.691Z,1.00
2022-11-19T13:56:41.724Z,1.00
2022-11-19T13:59:22.724Z,1.00
2022-11-19T14:02:10.442Z,1.00
2022-11-19T14:05:10.749Z,1.00
2022-11-19T14:08:01.195Z,1.00
2022-11-19T14:10:37.280Z,1.00
2022-11-19T14:13:24.162Z,1.00
2022-11-19T14:16:23.778Z,1.00
2022-11-19T14:19:12.873Z,1.00
2022-11-19T14:22:06.608Z,5.00
2022-11-19T14:25:14.459Z,2.50
2022-11-19T14:27:44.746Z,7.00
2022-11-19T14:30:16.345Z,7.00
2022-11-19T14:32:49.802Z,9.10
2022-11-19T14:35:43.100Z,9.80
2022-11-19T14:38:36.724Z,12.30
2022-11-19T14:41:09.140Z,19.30
2022-11-19T14:44:10.285Z,20.30
2022-11-19T14:46:47.729Z,26.10
2022-11-19T14:49:34.271Z,22.10
2022-11-19T14:52:03.527Z,26.30
2022-11-19T14:54:34.335Z,25.70
2022-11-19T14:57:15.002Z,26.20
2022-11-19T14:59:48.624Z,29.70
2022-11-19T15:02:27.536Z,30.00
2022-11-19T15:05:04.769Z,37.70
2022-11-19T15:07:39.845Z,35.60
2022-11-19T15:10:34.094Z,36.60
2022-11-19T15:13:22.724Z,35.50
2022-11-19T15:15:58.556Z,35.50
2022-11-19T15:19:12.124Z,37.30
2022-11-19T15:22:19.898Z,42.20
2022-11-19T15:25:13.905Z,42.60
2022-11-19T15:28:03.380Z,43.30
2022-11-19T15:30:43.485Z,47.40
2022-11-19T15:33:38.150Z,49.70
2022-11-19T15:36:26.462Z,50.00
2022-11-19T15:38:59.097Z,47.80
2022-11-19T15:41:29.308Z,47.00
2022-11-19T15:44:00.351Z,52.40
2022-11-19T15:46:38.715Z,53.00
2022-11-19T15:49:15.528Z,53.60
2022-11-19T15:52:00.302Z,56.70
2022-11-19T15:54:30.390Z,53.50
2022-11-19T15:57:01.683Z,53.50
2022-11-19T15:59:31.179Z,54.70
2022-11-19T16:02:00.103Z,53.40
2022-11-19T16:04:36.687Z,59.70
2022-11-19T16:07:07.053Z,60.80
2022-11-19T16:09:35.878Z,65.60
2022-11-19T16:12:21.856Z,60.70
2022-11-19T16:15:11.947Z,66.40
2022-11-19T16:17:47.062Z,62.90
2022-11-19T16:20:22.244Z,61.60
2022-11-19T16:22:58.406Z,60.00
2022-11-19T16:25:32.128Z,61.50
2022-11-19T16:28:03.411Z,63.40
2022-11-19T16:30:46.269Z,64.00
2022-11-19T16:33:18.455Z,65.30
2022-11-19T16:35:52.583Z,65.70
2022-11-19T16:38:27.744Z,63.70
2022-11-19T16:41:14.164Z,60.10
2022-11-19T16:43:44.683Z,56.90
2022-11-19T16:46:15.132Z,59.30
2022-11-19T16:48:58.414Z,54.70
2022-11-19T16:51:37.583Z,55.10
2022-11-19T16:54:07.524Z,55.50
2022-11-19T16:56:44.451Z,56.00
2022-11-19T16:59:20.300Z,55.70
2022-11-19T17:01:57.063Z,54.80
2022-11-19T17:04:29.771Z,53.00
2022-11-19T17:07:00.050Z,56.00
2022-11-19T17:09:35.716Z,53.10
2022-11-19T17:12:18.849Z,51.40
2022-11-19T17:14:50.837Z,58.70
2022-11-19T17:17:35.571Z,56.50
2022-11-19T17:20:40.102Z,57.20
2022-11-19T17:23:15.172Z,61.90
2022-11-19T17:25:48.246Z,60.20
2022-11-19T17:28:26.514Z,51.40
2022-11-19T17:30:56.232Z,47.50
2022-11-19T17:33:24.986Z,52.00
2022-11-19T17:35:53.193Z,50.10
2022-11-19T17:38:26.967Z,51.40
2022-11-19T17:40:57.497Z,50.10
2022-11-19T17:43:48.233Z,48.30
2022-11-19T17:46:16.514Z,46.30
2022-11-19T17:48:46.200Z,48.80
2022-11-19T17:51:15.528Z,52.50
2022-11-19T17:53:45.034Z,52.50
2022-11-19T17:56:17.437Z,49.00
2022-11-19T17:58:45.426Z,48.70
2022-11-19T18:01:14.576Z,51.80
2022-11-19T18:03:42.980Z,51.20
2022-11-19T18:06:13.102Z,53.50
2022-11-19T18:08:42.097Z,51.90
2022-11-19T18:11:14.491Z,52.40
2022-11-19T18:13:44.217Z,54.70
2022-11-19T18:16:15.432Z,56.60
2022-11-19T18:18:43.601Z,51.40
2022-11-19T18:21:13.259Z,54.60
2022-11-19T18:23:41.828Z,53.10
2022-11-19T18:26:12.701Z,51.90
2022-11-19T18:28:43.739Z,54.60
2022-11-19T18:31:17.279Z,56.30
2022-11-19T18:33:47.773Z,57.10
2022-11-19T18:36:16.555Z,55.30
2022-11-19T18:38:44.633Z,53.70
2022-11-19T18:41:15.937Z,58.50
2022-11-19T18:44:01.466Z,64.40
2022-11-19T18:46:29.446Z,69.80
2022-11-19T18:48:57.480Z,62.80
2022-11-19T18:51:27.243Z,63.40
2022-11-19T18:53:55.282Z,64.80
2022-11-19T18:56:24.650Z,67.00
2022-11-19T18:58:53.268Z,72.10
2022-11-19T19:01:23.751Z,73.20
2022-11-19T19:03:53.072Z,71.50
2022-11-19T19:06:23.049Z,76.50
2022-11-19T19:08:51.225Z,75.80
2022-11-19T19:11:36.782Z,75.60
2022-11-19T19:14:06.307Z,74.60
2022-11-19T19:16:35.040Z,70.50
2022-11-19T19:19:03.364Z,72.30
2022-11-19T19:21:31.921Z,67.60
2022-11-19T19:24:00.037Z,69.70
2022-11-19T19:26:28.119Z,66.10
2022-11-19T19:28:56.349Z,65.40
2022-11-19T19:31:26.007Z,65.70
2022-11-19T19:33:54.365Z,60.70
2022-11-19T19:36:22.869Z,62.70
2022-11-19T19:38:51.385Z,65.60
2022-11-19T19:41:22.025Z,66.00
2022-11-19T19:43:50.856Z,63.70
2022-11-19T19:46:20.622Z,70.70
2022-11-19T19:48:52.670Z,71.50
2022-11-19T19:51:22.137Z,76.00
2022-11-19T19:53:50.211Z,79.30
2022-11-19T19:56:20.847Z,79.10
2022-11-19T19:58:50.723Z,78.90
2022-11-19T20:01:20.451Z,84.20
2022-11-19T20:03:54.486Z,79.30
2022-11-19T20:06:24.431Z,72.40
2022-11-19T20:08:52.347Z,75.60
2022-11-19T20:11:24.488Z,78.40
2022-11-19T20:13:53.412Z,76.90
2022-11-19T20:16:23.375Z,73.20
2022-11-19T20:18:54.299Z,77.80
2022-11-19T20:21:24.650Z,79.40
2022-11-19T20:23:53.413Z,83.90
2022-11-19T20:26:23.803Z,83.20
2022-11-19T20:28:56.463Z,80.90
2022-11-19T20:31:24.955Z,81.30
2022-11-19T20:33:55.848Z,80.90
2022-11-19T20:36:24.850Z,78.40
2022-11-19T20:38:53.501Z,80.90
2022-11-19T20:41:40.605Z,79.20
2022-11-19T20:44:21.395Z,75.80
2022-11-19T20:46:51.436Z,77.20
2022-11-19T20:49:23.678Z,79.00
2022-11-19T20:51:52.761Z,78.40
2022-11-19T20:54:22.239Z,78.60
2022-11-19T20:56:51.419Z,81.20
2022-11-19T20:59:20.455Z,78.10
2022-11-19T21:01:52.051Z,81.10
2022-11-19T21:04:22.123Z,80.30
2022-11-19T21:06:50.634Z,82.00
2022-11-19T21:09:19.649Z,79.20
2022-11-19T21:11:48.633Z,81.30
2022-11-19T21:14:16.660Z,78.60
2022-11-19T21:16:44.904Z,79.40
2022-11-19T21:19:13.523Z,74.10
2022-11-19T21:21:44.145Z,75.90
2022-11-19T21:24:12.672Z,81.30
2022-11-19T21:26:40.696Z,80.70
2022-11-19T21:29:08.724Z,80.50
2022-11-19T21:31:42.094Z,72.80
2022-11-19T21:34:11.917Z,72.80
2022-11-19T21:36:42.827Z,79.00
2022-11-19T21:39:12.024Z,78.80
2022-11-19T21:41:40.268Z,80.20
2022-11-19T21:44:08.334Z,77.80
2022-11-19T21:46:36.951Z,77.20
2022-11-19T21:49:05.270Z,74.50
2022-11-19T21:51:33.381Z,74.10
2022-11-19T21:54:02.749Z,75.90
2022-11-19T21:56:35.463Z,79.10
2022-11-19T21:59:06.424Z,76.10
2022-11-19T22:01:34.539Z,76.50
2022-11-19T22:04:02.608Z,74.90
2022-11-19T22:06:31.669Z,74.40
2022-11-19T22:08:59.715Z,74.70
2022-11-19T22:11:32.389Z,77.90
2022-11-19T22:14:02.668Z,75.50
2022-11-19T22:16:31.826Z,77.10
2022-11-19T22:18:59.858Z,77.40
2022-11-19T22:21:29.419Z,78.60
2022-11-19T22:23:57.820Z,73.60
2022-11-19T22:26:26.351Z,73.40
2022-11-19T22:28:55.867Z,74.30
2022-11-19T22:31:23.789Z,72.30
2022-11-19T22:33:53.047Z,74.10
2022-11-19T22:36:22.527Z,76.40
2022-11-19T22:38:51.061Z,76.50
2022-11-19T22:41:21.555Z,79.20
2022-11-19T22:43:50.206Z,79.30
2022-11-19T22:46:20.321Z,79.80
2022-11-19T22:48:48.724Z,78.00
2022-11-19T22:51:18.759Z,79.70
2022-11-19T22:53:47.266Z,82.70
2022-11-19T22:56:17.933Z,83.40
2022-11-19T22:58:45.915Z,83.30
2022-11-19T23:01:17.560Z,81.80
2022-11-19T23:03:47.329Z,80.40
2022-11-19T23:06:15.592Z,78.50
2022-11-19T23:08:43.839Z,76.80
2022-11-19T23:11:12.611Z,79.00
2022-11-19T23:13:41.992Z,77.70
2022-11-19T23:16:12.330Z,77.80
2022-11-19T23:18:42.553Z,76.60
2022-11-19T23:21:14.808Z,77.70
2022-11-19T23:23:42.920Z,78.40
2022-11-19T23:26:12.628Z,80.40
2022-11-19T23:28:41.148Z,83.10
2022-11-19T23:31:11.039Z,84.50
2022-11-19T23:33:39.007Z,85.10
2022-11-19T23:36:09.124Z,80.10
2022-11-19T23:38:39.592Z,82.70
2022-11-19T23:41:09.823Z,83.80
2022-11-19T23:43:38.710Z,81.40
2022-11-19T23:46:09.611Z,84.40
2022-11-19T23:48:39.019Z,85.20
2022-11-19T23:51:09.241Z,84.50
2022-11-19T23:53:38.872Z,79.80
2022-11-19T23:56:07.896Z,76.00
2022-11-19T23:58:36.736Z,78.50
